Time;durP1;ratioP1;P1;durP2;ratioP2;P2;SDS_P1;SDS_P2;PMS_P1;PMS_P2;Temp;Humidity;BMP_temperature;BMP_pressure;BME280_temperature;BME280_humidity;BME280_pressure;Samples;Min_cycle;Max_cycle;Signal;HPM_P1;HPM_P2
2024/01/04 00:01:42;;;;;;;6.20;1.95;;;31.10;99.90;;;;;;4992045;28;20616;-71
2024/01/04 00:04:10;;;;;;;6.10;1.92;;;31.20;99.90;;;;;;4993247;28;20587;-71
2024/01/04 00:06:44;;;;;;;5.47;2.10;;;31.30;99.90;;;;;;4976112;28;20210;-71
2024/01/04 00:09:14;;;;;;;3.80;1.80;;;31.50;99.90;;;;;;4974725;28;20673;-71
2024/01/04 00:11:42;;;;;;;8.20;2.80;;;32.00;99.90;;;;;;4991959;28;20313;-71
2024/01/04 00:14:09;;;;;;;6.68;2.45;;;32.10;99.90;;;;;;4993676;28;20217;-71
2024/01/04 00:16:37;;;;;;;4.45;2.55;;;31.50;99.90;;;;;;4983788;28;20657;-72
2024/01/04 00:19:04;;;;;;;3.22;2.08;;;31.40;99.90;;;;;;4974389;28;20186;-72
2024/01/04 00:21:31;;;;;;;8.30;2.15;;;31.30;99.90;;;;;;4974352;28;20179;-70
2024/01/04 00:24:00;;;;;;;5.88;2.20;;;31.50;99.90;;;;;;4975769;28;20167;-72
2024/01/04 00:26:28;;;;;;;3.30;1.92;;;31.80;99.90;;;;;;4992129;28;20236;-71
2024/01/04 00:28:55;;;;;;;4.35;2.08;;;31.60;99.90;;;;;;4991715;28;20183;-72
2024/01/04 00:31:22;;;;;;;4.53;2.00;;;31.70;99.90;;;;;;4984926;28;20213;-71
2024/01/04 00:33:50;;;;;;;6.47;2.05;;;31.40;99.90;;;;;;4992002;28;20210;-71
2024/01/04 00:36:17;;;;;;;3.78;1.60;;;31.40;99.90;;;;;;4993667;28;20170;-72
2024/01/04 00:38:44;;;;;;;2.97;1.80;;;31.40;99.90;;;;;;4993245;28;20228;-72
2024/01/04 00:41:15;;;;;;;4.30;1.60;;;31.60;99.90;;;;;;4993450;28;20185;-73
2024/01/04 00:43:42;;;;;;;5.57;2.17;;;31.70;99.90;;;;;;4993876;28;20174;-72
2024/01/04 00:46:10;;;;;;;6.78;2.42;;;31.60;99.90;;;;;;4982997;28;20186;-72
2024/01/04 00:48:37;;;;;;;4.78;1.75;;;31.30;99.90;;;;;;4984804;28;20184;-72
2024/01/04 00:51:04;;;;;;;4.93;2.53;;;31.00;99.90;;;;;;4981929;28;20276;-72
2024/01/04 00:53:32;;;;;;;7.57;2.58;;;30.60;99.90;;;;;;4985448;28;20179;-72
2024/01/04 00:55:59;;;;;;;4.95;2.13;;;30.30;99.90;;;;;;4993318;28;20615;-72
2024/01/04 00:58:27;;;;;;;6.60;2.30;;;30.10;99.90;;;;;;4993409;28;20177;-72
2024/01/04 01:00:54;;;;;;;7.00;2.35;;;30.30;99.90;;;;;;4995524;28;20182;-73
2024/01/04 01:03:21;;;;;;;4.60;1.90;;;30.90;99.90;;;;;;4993893;28;20197;-72
2024/01/04 01:05:49;;;;;;;6.68;2.10;;;30.90;99.90;;;;;;4985948;28;20180;-74
2024/01/04 01:08:17;;;;;;;5.10;2.20;;;31.20;99.90;;;;;;4952840;28;20571;-72
2024/01/04 01:10:44;;;;;;;8.02;2.25;;;31.10;99.90;;;;;;4979395;28;20210;-73
2024/01/04 01:13:11;;;;;;;5.78;2.67;;;31.30;99.90;;;;;;4989684;28;20195;-75
2024/01/04 01:15:39;;;;;;;6.82;2.42;;;30.90;99.90;;;;;;4990723;28;20198;-74
2024/01/04 01:18:06;;;;;;;6.80;2.60;;;31.00;99.90;;;;;;4987431;28;20208;-72
2024/01/04 01:20:34;;;;;;;12.38;2.72;;;31.20;99.90;;;;;;4991593;28;20644;-73
2024/01/04 01:23:01;;;;;;;6.85;2.55;;;31.30;99.90;;;;;;4991831;28;20657;-73
2024/01/04 01:25:28;;;;;;;6.03;2.53;;;31.00;99.90;;;;;;4969254;28;20237;-72
2024/01/04 01:27:56;;;;;;;10.95;2.47;;;31.00;99.90;;;;;;4989461;28;20194;-72
2024/01/04 01:30:23;;;;;;;7.65;2.53;;;30.70;99.90;;;;;;4991377;28;20203;-73
2024/01/04 01:32:50;;;;;;;6.75;2.28;;;30.30;99.90;;;;;;4991457;28;20182;-72
2024/01/04 01:35:18;;;;;;;7.68;2.17;;;29.90;99.90;;;;;;4991439;28;20266;-73
2024/01/04 01:37:45;;;;;;;7.93;2.50;;;29.70;99.90;;;;;;4981801;28;20189;-72
2024/01/04 01:40:12;;;;;;;4.63;1.80;;;29.50;99.90;;;;;;4985620;28;20183;-72
2024/01/04 01:42:40;;;;;;;5.47;1.90;;;29.40;99.90;;;;;;4984523;28;20549;-73
2024/01/04 01:45:07;;;;;;;3.07;1.90;;;29.10;99.90;;;;;;4985269;28;20523;-72
2024/01/04 01:47:35;;;;;;;6.73;1.90;;;28.80;99.90;;;;;;4985795;28;20179;-73
2024/01/04 01:50:02;;;;;;;3.90;2.03;;;28.90;99.90;;;;;;4987076;28;20650;-71
2024/01/04 01:52:30;;;;;;;4.23;2.07;;;29.00;99.90;;;;;;4984237;28;20190;-72
2024/01/04 01:54:57;;;;;;;5.37;2.60;;;29.00;99.90;;;;;;4987477;28;20260;-72
2024/01/04 01:57:27;;;;;;;6.93;2.33;;;28.80;99.90;;;;;;4988264;28;20273;-73
2024/01/04 01:59:55;;;;;;;4.30;2.03;;;28.60;99.90;;;;;;4985527;28;20183;-72
2024/01/04 02:02:22;;;;;;;4.90;2.50;;;28.40;99.90;;;;;;4984463;28;20281;-73
2024/01/04 02:04:50;;;;;;;5.70;2.40;;;28.10;99.90;;;;;;4985304;28;20273;-75
2024/01/04 02:07:17;;;;;;;5.40;2.53;;;27.90;99.90;;;;;;4983321;28;20190;-73
2024/01/04 02:09:45;;;;;;;4.90;2.73;;;27.70;99.90;;;;;;4986622;28;20191;-74
2024/01/04 02:12:13;;;;;;;4.70;2.30;;;27.50;99.90;;;;;;4984266;28;20223;-73
2024/01/04 02:14:41;;;;;;;7.10;2.33;;;27.40;99.90;;;;;;4983873;28;20178;-74
2024/01/04 02:17:09;;;;;;;6.30;2.77;;;27.20;99.90;;;;;;4982839;28;20264;-74
2024/01/04 02:19:36;;;;;;;4.70;2.33;;;27.10;99.90;;;;;;4983746;28;20183;-76
2024/01/04 02:22:04;;;;;;;9.33;3.20;;;26.90;99.90;;;;;;4982138;28;20582;-74
2024/01/04 02:24:31;;;;;;;9.83;2.87;;;26.70;99.90;;;;;;4994841;28;20201;-72
2024/01/04 02:26:59;;;;;;;5.93;2.67;;;26.60;99.90;;;;;;4995145;28;20179;-80
2024/01/04 02:29:26;;;;;;;11.47;3.10;;;26.40;99.90;;;;;;4994586;28;20213;-74
2024/01/04 02:31:53;;;;;;;4.97;2.40;;;26.30;99.90;;;;;;4994854;28;20249;-74
2024/01/04 02:34:21;;;;;;;11.13;2.70;;;26.30;99.90;;;;;;4994906;28;20183;-77
2024/01/04 02:36:48;;;;;;;5.20;2.97;;;26.10;99.90;;;;;;4994523;28;20241;-75
2024/01/04 02:39:15;;;;;;;5.23;2.83;;;26.00;99.90;;;;;;4976756;28;20281;-77
2024/01/04 02:41:43;;;;;;;6.70;2.90;;;26.00;99.90;;;;;;4975061;28;20190;-76
2024/01/04 02:44:10;;;;;;;5.33;2.83;;;25.90;99.90;;;;;;4974885;28;20206;-75
2024/01/04 02:46:37;;;;;;;5.17;2.23;;;25.80;99.90;;;;;;4974729;28;20197;-76
2024/01/04 02:49:05;;;;;;;5.70;2.57;;;25.80;99.90;;;;;;4990251;28;20186;-76
2024/01/04 02:51:32;;;;;;;6.47;2.70;;;25.70;99.90;;;;;;4992112;28;20245;-77
2024/01/04 02:54:00;;;;;;;6.50;2.20;;;25.60;99.90;;;;;;4974693;28;20175;-76
2024/01/04 02:56:27;;;;;;;7.10;3.00;;;25.50;99.90;;;;;;4974928;28;20245;-74
2024/01/04 03:02:16;;;;;;;6.17;3.00;;;25.40;99.90;;;;;;4993593;28;20658;-77
2024/01/04 03:04:45;;;;;;;10.67;3.03;;;25.30;99.90;;;;;;4993856;28;20190;-76
2024/01/04 03:07:13;;;;;;;8.37;2.90;;;25.20;99.90;;;;;;4993578;28;20178;-75
2024/01/04 03:09:41;;;;;;;11.33;3.10;;;25.10;99.90;;;;;;4976408;28;20274;-76
2024/01/04 03:12:08;;;;;;;8.33;2.50;;;25.00;99.90;;;;;;4974632;28;20353;-76
2024/01/04 03:14:36;;;;;;;7.30;3.17;;;24.80;99.90;;;;;;4973847;28;20194;-76
2024/01/04 03:17:03;;;;;;;7.70;3.30;;;24.80;99.90;;;;;;4974923;28;20751;-76
2024/01/04 03:19:30;;;;;;;6.07;2.87;;;24.60;99.90;;;;;;4974476;28;20208;-76
2024/01/04 03:21:58;;;;;;;6.20;2.70;;;24.50;99.90;;;;;;4993604;28;20182;-78
2024/01/04 03:24:25;;;;;;;5.53;2.47;;;24.50;99.90;;;;;;4976651;28;20187;-75
2024/01/04 03:26:52;;;;;;;5.00;2.93;;;24.50;99.90;;;;;;4986668;28;20177;-76
2024/01/04 03:29:19;;;;;;;4.93;2.57;;;24.50;99.90;;;;;;4986850;28;20233;-73
2024/01/04 03:31:47;;;;;;;7.13;2.77;;;24.50;99.90;;;;;;4983298;28;20301;-73
2024/01/04 03:34:18;;;;;;;8.33;3.23;;;24.40;99.90;;;;;;4983464;28;20198;-73
2024/01/04 03:36:45;;;;;;;8.60;2.73;;;24.40;99.90;;;;;;4981690;28;20238;-73
2024/01/04 03:39:13;;;;;;;7.57;2.77;;;24.40;99.90;;;;;;4987638;28;20226;-74
2024/01/04 03:41:40;;;;;;;7.70;2.90;;;24.40;99.90;;;;;;4993702;28;20175;-75
2024/01/04 03:44:07;;;;;;;8.60;2.80;;;24.40;99.90;;;;;;4993096;28;20170;-76
2024/01/04 03:46:35;;;;;;;5.93;3.27;;;24.40;99.90;;;;;;4993118;28;20210;-75
2024/01/04 03:49:02;;;;;;;5.40;2.70;;;24.40;99.90;;;;;;4993393;28;20715;-75
2024/01/04 03:51:29;;;;;;;7.97;3.00;;;24.30;99.90;;;;;;4976936;28;20222;-75
2024/01/04 03:53:58;;;;;;;8.83;3.73;;;24.20;99.90;;;;;;4974337;28;20175;-74
2024/01/04 03:56:25;;;;;;;5.90;2.90;;;24.10;99.90;;;;;;4986368;28;20233;-75
2024/01/04 03:58:53;;;;;;;7.83;3.10;;;24.00;99.90;;;;;;4982864;28;20179;-75
2024/01/04 04:01:20;;;;;;;6.80;2.90;;;24.00;99.90;;;;;;4976674;28;20274;-76
2024/01/04 04:03:47;;;;;;;7.10;3.00;;;24.00;99.90;;;;;;4988478;28;20178;-75
2024/01/04 04:06:19;;;;;;;7.53;3.20;;;23.90;99.90;;;;;;4992778;28;20183;-75
2024/01/04 04:08:46;;;;;;;8.00;3.20;;;23.90;99.90;;;;;;4993226;28;20225;-76
2024/01/04 04:11:19;;;;;;;9.33;3.50;;;23.90;99.90;;;;;;4989578;28;20210;-75
2024/01/04 04:13:47;;;;;;;6.80;3.20;;;23.80;99.90;;;;;;4973388;28;20660;-75
2024/01/04 04:16:14;;;;;;;7.83;3.40;;;23.70;99.90;;;;;;4973515;28;20182;-75
2024/01/04 04:18:42;;;;;;;7.13;2.73;;;23.70;99.90;;;;;;4973603;28;20183;-74
2024/01/04 04:21:17;;;;;;;5.70;3.40;;;23.70;99.90;;;;;;4973233;28;20183;-75
2024/01/04 04:23:47;;;;;;;8.83;3.10;;;23.70;99.90;;;;;;4987326;28;20177;-75
2024/01/04 04:26:16;;;;;;;10.70;3.57;;;23.60;99.90;;;;;;4990753;28;20195;-74
2024/01/04 04:28:43;;;;;;;9.97;3.23;;;23.60;99.90;;;;;;4982905;28;20539;-73
2024/01/04 04:31:15;;;;;;;8.23;3.90;;;23.60;99.90;;;;;;4972780;28;20235;-76
2024/01/04 04:33:47;;;;;;;7.27;3.57;;;23.60;99.90;;;;;;4974363;28;20226;-76
2024/01/04 04:36:15;;;;;;;6.87;3.20;;;23.60;99.90;;;;;;4974392;28;20192;-75
2024/01/04 04:38:43;;;;;;;9.70;3.97;;;23.50;99.90;;;;;;4974153;28;20229;-76
2024/01/04 04:41:11;;;;;;;7.80;3.23;;;23.40;99.90;;;;;;4972781;28;20713;-75
2024/01/04 04:43:38;;;;;;;7.83;3.53;;;23.30;99.90;;;;;;4972839;28;20218;-76
2024/01/04 04:46:09;;;;;;;6.17;3.10;;;23.30;99.90;;;;;;4974078;28;20650;-76
2024/01/04 04:48:37;;;;;;;9.93;3.83;;;23.20;99.90;;;;;;4974608;28;20515;-76
2024/01/04 04:51:04;;;;;;;8.07;3.47;;;23.10;99.90;;;;;;4974137;28;20313;-75
2024/01/04 04:53:32;;;;;;;8.43;3.57;;;23.10;99.90;;;;;;4974064;28;20179;-75
2024/01/04 04:55:59;;;;;;;11.33;3.53;;;23.10;99.90;;;;;;4974116;28;20274;-75
2024/01/04 04:58:28;;;;;;;11.30;3.67;;;23.00;99.90;;;;;;4974142;28;20225;-74
2024/01/04 05:00:55;;;;;;;13.83;4.33;;;22.90;99.90;;;;;;4972571;28;20274;-74
2024/01/04 05:03:23;;;;;;;10.80;3.77;;;22.90;99.90;;;;;;4974083;28;20186;-74
2024/01/04 05:05:50;;;;;;;7.70;3.40;;;22.80;99.90;;;;;;4973932;28;20266;-74
2024/01/04 05:08:17;;;;;;;9.83;3.90;;;22.80;99.90;;;;;;4973908;28;20630;-74
2024/01/04 05:10:45;;;;;;;10.30;4.00;;;22.80;99.90;;;;;;4973791;28;20250;-74
2024/01/04 05:13:12;;;;;;;10.33;4.00;;;22.70;99.90;;;;;;4974116;28;20176;-75
2024/01/04 05:15:39;;;;;;;13.40;4.80;;;22.70;99.90;;;;;;4975269;28;20571;-75
2024/01/04 05:18:09;;;;;;;12.43;4.50;;;22.60;99.90;;;;;;4977933;28;20176;-75
2024/01/04 05:20:37;;;;;;;11.47;4.43;;;22.60;99.90;;;;;;4977930;28;20182;-75
2024/01/04 05:23:04;;;;;;;11.57;4.00;;;22.50;99.90;;;;;;4977332;28;20256;-75
2024/01/04 05:25:31;;;;;;;10.27;4.57;;;22.60;99.90;;;;;;4977596;28;20205;-75
2024/01/04 05:27:59;;;;;;;9.67;4.40;;;22.50;99.90;;;;;;4976325;28;20198;-75
2024/01/04 05:30:26;;;;;;;9.67;4.57;;;22.50;99.90;;;;;;4977597;28;20219;-75
2024/01/04 05:32:53;;;;;;;8.70;4.10;;;22.50;99.90;;;;;;4954798;28;20237;-75
2024/01/04 05:35:21;;;;;;;8.57;4.23;;;22.50;99.90;;;;;;4975854;28;20246;-75
2024/01/04 05:37:48;;;;;;;11.27;5.23;;;22.50;99.90;;;;;;4975581;28;20186;-75
2024/01/04 05:40:16;;;;;;;11.40;4.10;;;22.40;99.90;;;;;;4975482;28;20222;-75
2024/01/04 05:42:43;;;;;;;16.63;4.60;;;22.30;99.90;;;;;;4975976;28;20262;-76
2024/01/04 05:45:11;;;;;;;8.97;4.17;;;22.40;99.90;;;;;;4976142;28;20701;-78
2024/01/04 05:47:38;;;;;;;12.80;4.00;;;22.40;99.90;;;;;;4974373;28;20530;-76
2024/01/04 05:50:06;;;;;;;14.07;4.63;;;22.40;99.90;;;;;;4977003;28;20285;-77
2024/01/04 05:52:34;;;;;;;8.67;4.00;;;22.40;99.90;;;;;;4976009;28;20256;-77
2024/01/04 05:55:02;;;;;;;13.30;4.73;;;22.40;99.90;;;;;;4975556;28;20185;-76
2024/01/04 05:57:29;;;;;;;12.03;4.43;;;22.40;99.90;;;;;;4975914;28;20175;-78
2024/01/04 05:59:57;;;;;;;11.97;4.53;;;22.40;99.90;;;;;;4988189;28;20183;-77
2024/01/04 06:02:26;;;;;;;9.43;4.60;;;22.50;99.90;;;;;;4975192;28;20175;-78
2024/01/04 06:04:54;;;;;;;14.43;4.97;;;22.50;99.90;;;;;;4976175;28;20179;-78
2024/01/04 06:07:22;;;;;;;13.90;4.93;;;22.60;99.90;;;;;;4975737;28;20201;-79
2024/01/04 06:09:49;;;;;;;11.93;4.93;;;22.60;99.90;;;;;;4975315;28;20179;-77
2024/01/04 06:12:17;;;;;;;12.77;4.33;;;22.60;99.90;;;;;;5009787;28;20308;-77
2024/01/04 06:14:45;;;;;;;12.87;4.50;;;22.70;99.90;;;;;;4994925;28;20182;-78
2024/01/04 06:17:12;;;;;;;14.43;5.70;;;22.70;99.90;;;;;;4986346;28;20218;-76
2024/01/04 06:19:40;;;;;;;9.20;4.40;;;22.70;99.90;;;;;;4975401;28;20638;-75
2024/01/04 06:22:07;;;;;;;12.37;4.53;;;22.80;99.90;;;;;;4992874;28;20193;-78
2024/01/04 06:24:34;;;;;;;14.63;5.43;;;22.90;99.90;;;;;;4994364;28;20647;-78
2024/01/04 06:27:02;;;;;;;7.67;3.97;;;23.00;99.90;;;;;;5002218;28;20187;-77
2024/01/04 06:29:29;;;;;;;11.90;4.63;;;22.90;99.90;;;;;;4986259;28;20211;-79
2024/01/04 06:31:57;;;;;;;11.50;5.23;;;23.00;99.90;;;;;;4990695;28;20210;-78
2024/01/04 06:34:24;;;;;;;15.23;4.50;;;23.00;99.90;;;;;;4994788;28;20703;-79
2024/01/04 06:36:52;;;;;;;10.20;4.20;;;23.00;99.90;;;;;;4994468;28;20237;-79
2024/01/04 06:39:19;;;;;;;10.90;4.07;;;23.00;99.90;;;;;;4994005;28;20227;-79
2024/01/04 06:41:46;;;;;;;15.07;4.27;;;23.10;99.90;;;;;;4979719;28;20194;-78
2024/01/04 06:44:14;;;;;;;9.27;4.10;;;23.20;99.90;;;;;;4975078;28;20273;-80
2024/01/04 06:46:42;;;;;;;8.83;4.20;;;23.30;99.90;;;;;;4987915;28;20183;-78
2024/01/04 06:49:09;;;;;;;10.07;3.93;;;23.30;99.90;;;;;;4994342;28;20278;-77
2024/01/04 06:51:36;;;;;;;11.37;3.97;;;23.30;99.90;;;;;;4994650;28;20217;-78
2024/01/04 06:54:04;;;;;;;9.87;4.63;;;23.40;99.90;;;;;;5009188;28;20552;-77
2024/01/04 06:56:31;;;;;;;14.93;4.40;;;23.40;99.90;;;;;;4993824;28;20198;-77
2024/01/04 06:58:58;;;;;;;12.90;4.57;;;23.60;99.90;;;;;;4994538;28;20178;-79
2024/01/04 07:01:26;;;;;;;15.83;4.07;;;23.50;99.90;;;;;;4994106;28;20178;-79
2024/01/04 07:03:53;;;;;;;11.37;3.90;;;23.60;99.90;;;;;;4994093;28;20183;-79
2024/01/04 07:06:20;;;;;;;12.83;4.03;;;23.70;99.90;;;;;;4986441;28;20190;-79
2024/01/04 07:08:48;;;;;;;15.43;4.10;;;23.80;99.90;;;;;;4974380;28;20171;-77
2024/01/04 07:11:15;;;;;;;10.93;3.63;;;23.80;99.90;;;;;;4974594;28;20239;-78
2024/01/04 07:13:42;;;;;;;10.57;3.60;;;23.90;99.90;;;;;;4993834;28;20288;-77
2024/01/04 07:16:10;;;;;;;14.10;3.50;;;24.00;99.90;;;;;;4988324;28;20196;-80
2024/01/04 07:18:37;;;;;;;12.73;4.10;;;24.00;99.90;;;;;;4975605;28;20180;-80
2024/01/04 07:21:05;;;;;;;8.90;3.63;;;24.20;99.90;;;;;;4992633;28;20213;-77
2024/01/04 07:23:33;;;;;;;11.60;3.50;;;24.00;99.90;;;;;;4989634;28;20190;-79
2024/01/04 07:26:00;;;;;;;8.90;3.47;;;23.90;99.90;;;;;;4975221;28;20180;-78
2024/01/04 07:28:29;;;;;;;12.87;3.93;;;23.70;99.90;;;;;;4987854;28;20201;-76
2024/01/04 07:30:56;;;;;;;21.20;4.20;;;23.70;99.90;;;;;;4973964;28;20215;-78
2024/01/04 07:33:26;;;;;;;11.83;3.57;;;23.60;99.90;;;;;;4974438;28;20191;-76
2024/01/04 07:35:53;;;;;;;10.67;3.47;;;23.60;99.90;;;;;;4974211;28;20179;-77
2024/01/04 07:38:21;;;;;;;13.70;3.93;;;23.60;99.90;;;;;;4991594;28;20309;-78
2024/01/04 07:40:48;;;;;;;11.60;4.00;;;23.70;99.90;;;;;;4988887;28;20186;-76
2024/01/04 07:43:16;;;;;;;13.10;3.73;;;23.50;99.90;;;;;;4975082;28;20595;-78
2024/01/04 07:45:43;;;;;;;9.03;3.37;;;23.50;99.90;;;;;;4973679;28;20282;-78
2024/01/04 07:48:11;;;;;;;9.67;3.43;;;23.40;99.90;;;;;;4974219;28;20234;-77
2024/01/04 07:50:39;;;;;;;11.00;3.43;;;23.50;99.90;;;;;;4973990;28;20211;-80
2024/01/04 07:53:06;;;;;;;9.00;3.13;;;23.40;99.90;;;;;;4988721;28;20573;-78
2024/01/04 07:55:33;;;;;;;8.67;3.13;;;23.40;99.90;;;;;;4979588;28;20179;-75
2024/01/04 07:58:01;;;;;;;11.60;3.70;;;23.40;99.90;;;;;;4993348;28;20183;-75
2024/01/04 08:00:28;;;;;;;10.03;2.87;;;23.40;99.90;;;;;;4992587;28;20181;-76
2024/01/04 08:02:55;;;;;;;10.77;3.27;;;23.40;99.90;;;;;;4977576;28;20703;-77
2024/01/04 08:05:23;;;;;;;9.23;3.07;;;23.40;99.90;;;;;;4973628;28;20233;-77
2024/01/04 08:07:50;;;;;;;9.30;3.53;;;23.40;99.90;;;;;;4973363;28;20168;-77
2024/01/04 08:10:17;;;;;;;11.43;3.50;;;23.40;99.90;;;;;;4973666;28;20540;-77
2024/01/04 08:12:45;;;;;;;7.00;2.90;;;23.30;99.90;;;;;;4972364;28;20601;-77
2024/01/04 08:15:13;;;;;;;13.37;4.17;;;23.30;99.90;;;;;;4973095;28;20555;-78
2024/01/04 08:17:40;;;;;;;10.23;3.13;;;23.30;99.90;;;;;;4973688;28;20211;-76
2024/01/04 08:20:08;;;;;;;6.67;3.03;;;23.30;99.90;;;;;;4973508;28;20182;-77
2024/01/04 08:22:35;;;;;;;14.30;3.50;;;23.20;99.90;;;;;;4990378;28;20179;-77
2024/01/04 08:25:03;;;;;;;9.07;3.23;;;23.30;99.90;;;;;;4992873;28;20632;-78
2024/01/04 08:27:30;;;;;;;9.93;3.37;;;23.20;99.90;;;;;;4992824;28;20210;-76
2024/01/04 08:29:57;;;;;;;8.73;3.23;;;23.20;99.90;;;;;;4992533;28;20198;-76
2024/01/04 08:32:24;;;;;;;10.73;3.33;;;23.10;99.90;;;;;;4992320;28;20304;-77
2024/01/04 08:34:52;;;;;;;10.03;3.07;;;23.10;99.90;;;;;;4992856;28;20170;-77
2024/01/04 08:37:20;;;;;;;8.73;3.60;;;23.10;99.90;;;;;;4992277;28;20281;-74
2024/01/04 08:39:47;;;;;;;9.33;3.47;;;23.10;99.90;;;;;;4985481;28;20235;-78
2024/01/04 08:42:15;;;;;;;13.73;3.37;;;23.00;99.90;;;;;;4973607;28;20187;-76
2024/01/04 08:44:42;;;;;;;9.57;3.30;;;23.00;99.90;;;;;;4982405;28;20225;-76
2024/01/04 08:47:10;;;;;;;8.67;3.53;;;23.00;99.90;;;;;;4981408;28;20209;-77
2024/01/04 08:49:37;;;;;;;11.70;3.27;;;23.00;99.90;;;;;;4983841;28;20193;-78
2024/01/04 08:52:05;;;;;;;10.67;3.10;;;23.00;99.90;;;;;;4982138;28;20688;-77
2024/01/04 08:54:32;;;;;;;13.30;3.67;;;22.90;99.90;;;;;;4981447;28;20190;-77
2024/01/04 08:56:59;;;;;;;11.70;3.20;;;23.00;99.90;;;;;;4988583;28;20222;-76
2024/01/04 08:59:27;;;;;;;11.60;2.70;;;23.00;99.90;;;;;;4972516;28;20606;-77
2024/01/04 09:01:54;;;;;;;11.53;2.93;;;22.90;99.90;;;;;;4972938;28;20179;-77
2024/01/04 09:04:22;;;;;;;7.60;3.10;;;22.90;99.90;;;;;;4978985;28;20201;-78
2024/01/04 09:06:49;;;;;;;11.60;3.37;;;22.80;99.90;;;;;;4991937;28;20623;-77
2024/01/04 09:09:17;;;;;;;10.93;3.90;;;22.70;99.90;;;;;;4992351;28;20270;-76
2024/01/04 09:11:48;;;;;;;13.10;3.30;;;22.70;99.90;;;;;;4991953;28;20229;-76
2024/01/04 09:14:16;;;;;;;10.70;3.20;;;22.70;99.90;;;;;;4991369;28;20241;-76
2024/01/04 09:16:44;;;;;;;10.60;2.87;;;22.70;99.90;;;;;;4981093;28;20726;-77
2024/01/04 09:19:16;;;;;;;9.47;2.57;;;22.70;99.90;;;;;;4992773;28;20194;-77
2024/01/04 09:21:44;;;;;;;13.70;3.53;;;22.70;99.90;;;;;;4993413;28;20193;-77
2024/01/04 09:24:13;;;;;;;11.50;2.70;;;22.70;99.90;;;;;;4992864;28;20190;-78
2024/01/04 09:26:41;;;;;;;9.77;2.33;;;22.60;99.90;;;;;;4993332;28;20570;-77
2024/01/04 09:29:10;;;;;;;9.83;2.63;;;22.60;99.90;;;;;;4993259;28;20183;-77
2024/01/04 09:31:38;;;;;;;6.93;2.33;;;22.60;99.90;;;;;;4993606;28;20308;-77
2024/01/04 09:34:05;;;;;;;8.23;2.30;;;22.60;99.90;;;;;;4991554;28;20555;-77
2024/01/04 09:36:32;;;;;;;7.30;2.30;;;22.50;99.90;;;;;;4993122;28;20240;-77
2024/01/04 09:39:00;;;;;;;9.63;2.40;;;22.50;99.90;;;;;;4993115;28;20706;-77
2024/01/04 09:41:32;;;;;;;10.50;2.27;;;22.40;99.90;;;;;;4992942;28;20240;-77
2024/01/04 09:44:06;;;;;;;8.10;2.10;;;22.40;99.90;;;;;;4992822;28;20305;-75
2024/01/04 09:46:38;;;;;;;13.93;2.23;;;22.40;99.90;;;;;;4993223;28;20224;-75
2024/01/04 09:49:06;;;;;;;12.00;2.20;;;22.30;99.90;;;;;;4991858;28;20191;-76
2024/01/04 09:51:42;;;;;;;9.87;2.20;;;22.30;99.90;;;;;;4973845;28;20230;-76
2024/01/04 09:54:10;;;;;;;13.13;2.63;;;22.30;99.90;;;;;;4973750;28;20182;-77
2024/01/04 09:56:50;;;;;;;5.53;1.87;;;22.30;99.90;;;;;;4973679;28;20194;-77
2024/01/04 09:59:18;;;;;;;13.43;2.00;;;22.20;99.90;;;;;;4974105;28;20637;-78
2024/01/04 10:01:47;;;;;;;8.10;2.50;;;22.20;99.90;;;;;;4976310;28;20189;-77
2024/01/04 10:04:17;;;;;;;10.47;2.07;;;22.20;99.90;;;;;;4976943;28;20266;-77
2024/01/04 10:06:45;;;;;;;9.50;2.10;;;22.20;99.90;;;;;;4988746;28;20277;-77
2024/01/04 10:09:35;;;;;;;8.93;2.00;;;22.20;99.90;;;;;;4990674;28;20274;-77
2024/01/04 10:12:08;;;;;;;8.70;2.27;;;22.10;99.90;;;;;;4995292;28;20726;-77
2024/01/04 10:14:36;;;;;;;8.57;2.40;;;22.10;99.90;;;;;;5011359;28;20240;-77
2024/01/04 10:17:04;;;;;;;8.03;2.40;;;22.10;99.90;;;;;;4985852;28;20545;-77
2024/01/04 10:19:34;;;;;;;9.50;2.57;;;22.00;99.90;;;;;;4995399;28;20195;-78
2024/01/04 10:22:03;;;;;;;6.33;1.83;;;22.00;99.90;;;;;;4996338;28;20183;-77
2024/01/04 10:24:41;;;;;;;10.63;2.20;;;21.90;99.90;;;;;;4994491;28;20701;-77
2024/01/04 10:27:09;;;;;;;8.03;2.03;;;21.90;99.90;;;;;;4995885;28;20182;-77
2024/01/04 10:29:38;;;;;;;8.93;2.40;;;21.90;99.90;;;;;;4996195;28;20262;-76
2024/01/04 10:32:10;;;;;;;5.53;2.33;;;21.90;99.90;;;;;;4995586;28;20222;-76
2024/01/04 10:34:38;;;;;;;12.83;1.90;;;21.90;99.90;;;;;;4994543;28;20176;-77
2024/01/04 10:37:12;;;;;;;9.93;2.03;;;21.90;99.90;;;;;;4996016;28;20228;-77
2024/01/04 10:39:41;;;;;;;7.57;2.10;;;21.80;99.90;;;;;;4992601;28;20284;-78
2024/01/04 10:42:09;;;;;;;5.77;1.83;;;21.80;99.90;;;;;;4978974;28;20210;-77
2024/01/04 10:44:36;;;;;;;9.80;2.23;;;21.90;99.90;;;;;;4976767;28;20178;-76
2024/01/04 10:47:09;;;;;;;4.57;1.73;;;22.00;99.90;;;;;;4979821;28;20219;-77
2024/01/04 10:49:44;;;;;;;16.10;2.50;;;22.00;99.90;;;;;;4981310;28;20193;-78
2024/01/04 10:52:16;;;;;;;8.27;2.00;;;22.00;99.90;;;;;;4993428;28;20263;-76
2024/01/04 10:54:44;;;;;;;8.80;1.83;;;22.10;99.90;;;;;;4995020;28;20214;-76
2024/01/04 10:57:13;;;;;;;10.83;2.63;;;22.10;99.90;;;;;;4995562;28;20182;-76
2024/01/04 10:59:43;;;;;;;8.27;2.40;;;22.10;99.90;;;;;;4995386;28;20272;-77
2024/01/04 11:02:15;;;;;;;7.37;2.13;;;22.10;99.90;;;;;;4995614;28;20182;-76
2024/01/04 11:04:43;;;;;;;7.10;1.97;;;22.10;99.90;;;;;;4995397;28;20181;-76
2024/01/04 11:07:11;;;;;;;10.20;1.90;;;22.20;99.90;;;;;;4994096;28;20598;-76
2024/01/04 11:09:39;;;;;;;9.23;1.63;;;22.10;99.90;;;;;;4976430;28;20195;-75
2024/01/04 11:12:08;;;;;;;9.60;2.03;;;22.20;99.90;;;;;;4963061;28;20329;-75
2024/01/04 11:14:36;;;;;;;6.57;2.03;;;22.10;99.90;;;;;;4993539;28;20185;-76
2024/01/04 11:17:40;;;;;;;5.30;1.67;;;22.10;99.90;;;;;;4991797;28;20233;-76
2024/01/04 11:20:40;;;;;;;7.83;1.57;;;22.00;99.90;;;;;;4976385;28;20281;-75
2024/01/04 11:23:32;;;;;;;8.13;1.90;;;21.90;99.90;;;;;;4976735;28;20242;-74
2024/01/04 11:26:34;;;;;;;6.77;1.70;;;21.80;99.90;;;;;;4972890;28;20182;-74
2024/01/04 11:29:08;;;;;;;10.50;1.80;;;21.80;99.90;;;;;;4970782;28;20645;-75
2024/01/04 11:31:44;;;;;;;10.57;1.90;;;21.80;99.90;;;;;;4972803;28;20550;-76
2024/01/04 11:34:14;;;;;;;11.50;2.57;;;21.80;99.90;;;;;;4973997;28;20179;-75
2024/01/04 11:36:42;;;;;;;8.87;2.10;;;21.90;99.90;;;;;;4989390;28;20576;-76
2024/01/04 11:39:10;;;;;;;4.87;1.70;;;21.90;99.90;;;;;;4973985;28;20756;-75
2024/01/04 11:41:38;;;;;;;11.77;2.47;;;22.00;99.90;;;;;;4973737;28;20245;-75
2024/01/04 11:44:19;;;;;;;8.17;2.40;;;22.00;99.90;;;;;;4974087;28;20203;-77
2024/01/04 11:46:46;;;;;;;7.13;1.70;;;22.00;99.90;;;;;;4974335;28;20282;-77
2024/01/04 11:49:15;;;;;;;10.40;2.23;;;22.00;99.90;;;;;;4976007;28;20219;-76
2024/01/04 11:51:48;;;;;;;8.50;1.80;;;22.00;99.90;;;;;;4973946;28;20273;-77
2024/01/04 11:54:17;;;;;;;12.33;2.03;;;22.00;99.90;;;;;;4974059;28;20642;-76
2024/01/04 11:56:46;;;;;;;7.10;2.27;;;22.00;99.90;;;;;;4979086;28;20209;-76
2024/01/04 11:59:21;;;;;;;5.13;1.70;;;22.10;99.90;;;;;;4993490;28;20258;-76
2024/01/04 12:01:49;;;;;;;6.23;2.03;;;22.10;99.90;;;;;;4989704;28;20261;-75
2024/01/04 12:04:17;;;;;;;9.83;2.30;;;22.10;99.90;;;;;;4982761;28;20198;-76
2024/01/04 12:06:46;;;;;;;11.33;2.33;;;22.10;99.90;;;;;;4975786;28;20233;-76
2024/01/04 12:09:16;;;;;;;11.70;2.30;;;22.10;99.90;;;;;;4974700;28;20203;-73
2024/01/04 12:11:56;;;;;;;10.07;2.07;;;22.00;99.90;;;;;;4981547;28;20217;-73
2024/01/04 12:14:24;;;;;;;9.50;2.00;;;22.00;99.90;;;;;;4994155;28;20186;-75
2024/01/04 12:16:51;;;;;;;8.73;2.43;;;21.90;99.90;;;;;;4993896;28;20636;-75
2024/01/04 12:19:19;;;;;;;7.63;1.70;;;21.90;99.90;;;;;;4977056;28;20187;-76
2024/01/04 12:21:46;;;;;;;13.87;2.17;;;21.90;99.90;;;;;;4974507;28;20183;-74
2024/01/04 12:24:14;;;;;;;15.90;2.20;;;21.90;99.90;;;;;;4973568;28;20190;-74
2024/01/04 12:26:41;;;;;;;11.53;1.70;;;21.90;99.90;;;;;;4974458;28;20187;-74
2024/01/04 12:29:09;;;;;;;17.00;2.97;;;21.90;99.90;;;;;;4973261;28;20668;-74
2024/01/04 12:31:38;;;;;;;12.33;2.77;;;21.90;99.90;;;;;;4989366;28;20226;-75
2024/01/04 12:34:12;;;;;;;9.47;2.33;;;21.90;99.90;;;;;;4986587;28;20661;-74
2024/01/04 12:36:39;;;;;;;13.40;2.50;;;21.80;99.90;;;;;;4980195;28;20222;-74
2024/01/04 12:39:11;;;;;;;13.23;1.90;;;21.80;99.90;;;;;;4990756;28;20233;-74
2024/01/04 12:41:44;;;;;;;9.43;2.10;;;21.80;99.90;;;;;;4977690;28;20553;-74
2024/01/04 12:44:13;;;;;;;12.87;2.23;;;21.80;99.90;;;;;;4974354;28;20538;-74
2024/01/04 12:46:43;;;;;;;13.17;2.77;;;21.70;99.90;;;;;;4984353;28;20190;-74
2024/01/04 12:49:11;;;;;;;13.23;2.67;;;21.70;99.90;;;;;;4993455;28;20175;-74
2024/01/04 12:51:40;;;;;;;13.83;2.03;;;21.70;99.90;;;;;;4992067;28;20214;-75
2024/01/04 12:54:09;;;;;;;10.17;2.13;;;21.60;99.90;;;;;;4993380;28;20648;-74